Time;durP1;ratioP1;P1;durP2;ratioP2;P2;SDS_P1;SDS_P2;PMS_P1;PMS_P2;Temp;Humidity;BMP_temperature;BMP_pressure;BME280_temperature;BME280_humidity;BME280_pressure;Samples;Min_cycle;Max_cycle;Signal;HPM_P1;HPM_P2
2021/04/06 00:01:45;;;;;;;13.97;6.20;;;2.20;99.90;;;;;;5092183;28;20459;-74
2021/04/06 00:04:21;;;;;;;7.87;5.57;;;2.30;99.90;;;;;;5094213;28;20403;-73
2021/04/06 00:06:54;;;;;;;9.73;4.87;;;2.40;99.90;;;;;;5093619;27;21015;-74
2021/04/06 00:09:26;;;;;;;9.70;4.87;;;2.50;99.90;;;;;;5093427;28;20414;-73
2021/04/06 00:11:54;;;;;;;9.90;5.50;;;2.40;99.90;;;;;;5093712;28;20453;-74
2021/04/06 00:14:22;;;;;;;9.23;4.77;;;2.20;99.90;;;;;;5093686;28;20485;-73
2021/04/06 00:16:49;;;;;;;9.93;5.13;;;2.00;99.90;;;;;;5092346;28;20797;-74
2021/04/06 00:19:16;;;;;;;6.20;4.43;;;2.10;99.90;;;;;;5093688;28;20430;-73
2021/04/06 00:21:43;;;;;;;5.80;4.33;;;2.10;99.90;;;;;;5093120;28;20457;-73
2021/04/06 00:24:10;;;;;;;7.07;3.50;;;2.00;99.90;;;;;;5093476;28;20522;-73
2021/04/06 00:26:53;;;;;;;8.37;4.80;;;1.90;99.90;;;;;;5091866;28;20907;-73
2021/04/06 00:29:22;;;;;;;5.27;4.23;;;1.90;99.90;;;;;;5093205;28;20402;-72
2021/04/06 00:31:51;;;;;;;6.83;4.03;;;2.10;99.90;;;;;;5093492;27;20466;-73
2021/04/06 00:34:21;;;;;;;8.20;5.00;;;2.20;99.90;;;;;;5093418;28;20496;-73
2021/04/06 00:36:54;;;;;;;7.43;4.53;;;2.00;99.90;;;;;;5093188;28;20735;-72
2021/04/06 00:39:32;;;;;;;5.97;4.20;;;1.90;99.90;;;;;;5093960;28;20404;-72
2021/04/06 00:42:11;;;;;;;7.90;5.47;;;2.00;99.90;;;;;;5093065;27;20462;-72
2021/04/06 00:44:41;;;;;;;10.93;7.20;;;2.00;99.90;;;;;;5098225;28;20736;-73
2021/04/06 00:47:10;;;;;;;14.27;9.50;;;2.00;99.90;;;;;;5095705;28;20548;-73
2021/04/06 00:49:37;;;;;;;14.23;9.73;;;2.00;99.90;;;;;;5097108;28;20740;-72
2021/04/06 00:52:04;;;;;;;19.97;11.00;;;2.00;99.90;;;;;;5097067;28;20423;-73
2021/04/06 00:54:33;;;;;;;21.57;13.33;;;2.20;99.90;;;;;;5097169;28;20490;-74
2021/04/06 00:56:59;;;;;;;21.17;12.37;;;2.30;99.90;;;;;;5096556;28;20741;-74
2021/04/06 00:59:25;;;;;;;16.87;11.17;;;2.30;99.90;;;;;;5095458;28;20771;-74
2021/04/06 01:01:57;;;;;;;21.33;12.27;;;2.30;99.90;;;;;;5096470;28;20480;-73
2021/04/06 01:04:26;;;;;;;15.93;11.43;;;2.40;99.90;;;;;;5096939;28;20501;-73
2021/04/06 01:07:06;;;;;;;18.97;10.73;;;2.30;99.90;;;;;;5096371;27;20522;-74
2021/04/06 01:12:39;;;;;;;28.03;10.00;;;2.20;99.90;;;;;;5073213;28;20591;-73
2021/04/06 01:15:06;;;;;;;20.23;9.73;;;2.30;99.90;;;;;;5057336;28;20513;-74
2021/04/06 01:17:34;;;;;;;19.80;8.57;;;2.30;99.90;;;;;;5074163;28;20262;-74
2021/04/06 01:20:09;;;;;;;12.80;8.30;;;2.40;99.90;;;;;;5057242;28;20443;-73
2021/04/06 01:22:36;;;;;;;14.90;8.40;;;2.50;99.90;;;;;;5074036;28;20577;-73
2021/04/06 01:25:02;;;;;;;15.50;7.13;;;2.50;99.90;;;;;;5074212;28;20489;-74
2021/04/06 01:27:28;;;;;;;18.20;8.17;;;2.60;99.90;;;;;;5075358;28;20405;-74
2021/04/06 01:29:55;;;;;;;10.47;6.67;;;2.50;99.90;;;;;;5075176;28;20441;-74
2021/04/06 01:32:24;;;;;;;13.77;7.73;;;2.50;99.90;;;;;;5076022;28;20173;-74
2021/04/06 01:34:50;;;;;;;9.43;5.80;;;2.50;99.90;;;;;;5074407;28;20447;-74
2021/04/06 01:37:20;;;;;;;15.77;6.07;;;2.60;99.90;;;;;;5074014;28;20420;-74
2021/04/06 01:39:48;;;;;;;10.60;5.60;;;2.50;99.90;;;;;;5075561;28;20416;-74
2021/04/06 01:42:14;;;;;;;8.37;5.67;;;2.50;99.90;;;;;;5076516;28;20447;-74
2021/04/06 01:44:43;;;;;;;19.50;7.00;;;2.60;99.90;;;;;;5097225;28;20414;-74
2021/04/06 01:47:13;;;;;;;14.40;7.43;;;2.50;99.90;;;;;;5096287;28;20169;-75
2021/04/06 01:49:39;;;;;;;16.33;7.50;;;2.60;99.90;;;;;;5094630;28;20924;-74
2021/04/06 01:52:04;;;;;;;9.43;6.17;;;2.70;99.90;;;;;;5096487;28;20406;-75
2021/04/06 01:54:31;;;;;;;11.33;6.00;;;2.60;99.90;;;;;;5094805;28;20415;-74
2021/04/06 01:57:01;;;;;;;12.00;6.27;;;2.50;99.90;;;;;;5096671;28;20418;-74
2021/04/06 01:59:37;;;;;;;9.93;5.93;;;2.40;99.90;;;;;;5096697;28;20391;-74
2021/04/06 02:02:03;;;;;;;13.23;6.23;;;2.50;99.90;;;;;;5096141;28;20454;-74
2021/04/06 02:04:30;;;;;;;11.33;6.50;;;2.60;99.90;;;;;;5095891;28;20425;-74
2021/04/06 02:06:59;;;;;;;12.00;6.70;;;2.60;99.90;;;;;;5096354;28;20476;-74
2021/04/06 02:09:25;;;;;;;10.93;7.20;;;2.60;99.90;;;;;;5095457;28;20486;-74
2021/04/06 02:11:51;;;;;;;12.57;7.13;;;2.70;99.90;;;;;;5095244;28;20510;-74
2021/04/06 02:14:19;;;;;;;11.00;6.67;;;2.70;99.90;;;;;;5095258;27;20438;-73
2021/04/06 02:16:54;;;;;;;7.93;5.80;;;2.80;99.90;;;;;;5094354;28;20426;-74
2021/04/06 02:19:39;;;;;;;13.50;7.33;;;2.80;99.90;;;;;;5095149;28;20487;-73
2021/04/06 02:22:08;;;;;;;13.03;7.43;;;2.90;99.90;;;;;;5095906;28;20443;-73
2021/04/06 02:24:40;;;;;;;17.73;7.13;;;2.90;99.90;;;;;;5094280;28;20407;-74
2021/04/06 02:27:20;;;;;;;14.40;7.70;;;2.80;99.90;;;;;;5093999;28;20419;-74
2021/04/06 02:29:56;;;;;;;11.50;6.83;;;2.60;99.90;;;;;;5093622;27;20510;-74
2021/04/06 02:32:24;;;;;;;15.73;6.70;;;2.60;99.90;;;;;;5095766;28;20407;-73
2021/04/06 02:34:52;;;;;;;12.67;7.40;;;2.60;99.90;;;;;;5094207;28;20421;-73
2021/04/06 02:37:22;;;;;;;12.33;6.80;;;2.60;99.90;;;;;;5095251;28;20456;-73
2021/04/06 02:39:50;;;;;;;10.47;6.37;;;2.60;99.90;;;;;;5094775;28;20487;-73
2021/04/06 02:42:21;;;;;;;12.43;6.87;;;2.50;99.90;;;;;;5095442;28;20482;-73
2021/04/06 02:44:47;;;;;;;10.50;6.70;;;2.40;99.90;;;;;;5095108;27;20427;-73
2021/04/06 02:47:14;;;;;;;11.93;6.60;;;2.40;99.90;;;;;;5095365;28;20407;-74
2021/04/06 02:49:40;;;;;;;12.47;7.80;;;2.50;99.90;;;;;;5093607;28;20770;-74
2021/04/06 02:52:05;;;;;;;13.87;7.50;;;2.60;99.90;;;;;;5094967;28;20419;-74
2021/04/06 02:54:32;;;;;;;15.00;8.03;;;2.70;99.90;;;;;;5094977;28;20402;-73
2021/04/06 02:56:58;;;;;;;12.97;11.17;;;2.80;99.90;;;;;;5095134;28;20187;-73
2021/04/06 02:59:24;;;;;;;15.20;9.80;;;2.80;99.90;;;;;;5094604;28;20399;-73
2021/04/06 03:01:56;;;;;;;17.70;11.40;;;2.50;99.90;;;;;;5094340;27;20251;-74
2021/04/06 03:04:27;;;;;;;12.70;9.60;;;2.50;99.90;;;;;;5094860;28;20184;-73
2021/04/06 03:06:54;;;;;;;14.80;9.60;;;2.50;99.90;;;;;;5094452;28;20427;-73
2021/04/06 03:09:25;;;;;;;15.90;10.30;;;2.60;99.90;;;;;;5094120;28;20468;-73
2021/04/06 03:11:53;;;;;;;13.13;9.53;;;2.70;99.90;;;;;;5094276;28;20430;-73
2021/04/06 03:14:22;;;;;;;11.13;8.67;;;2.80;99.90;;;;;;5094495;28;20908;-73
2021/04/06 03:16:50;;;;;;;11.00;8.20;;;2.80;99.90;;;;;;5092938;28;20407;-73
2021/04/06 03:19:16;;;;;;;10.27;7.30;;;2.70;99.90;;;;;;5092496;28;20499;-72
2021/04/06 03:21:42;;;;;;;9.53;5.90;;;2.40;99.90;;;;;;5093957;28;20462;-72
2021/04/06 03:24:08;;;;;;;6.90;5.90;;;2.40;99.90;;;;;;5093430;27;20407;-73
2021/04/06 03:26:34;;;;;;;6.63;5.27;;;2.50;99.90;;;;;;5094214;28;20246;-73
2021/04/06 03:29:01;;;;;;;10.33;4.60;;;2.50;99.90;;;;;;5093898;28;20398;-72
2021/04/06 03:31:28;;;;;;;9.70;4.60;;;2.40;99.90;;;;;;5093802;28;20285;-73
2021/04/06 03:33:56;;;;;;;4.53;3.57;;;2.50;99.90;;;;;;5092687;28;20403;-73
2021/04/06 03:36:27;;;;;;;7.90;4.20;;;2.50;99.90;;;;;;5092488;28;20411;-73
2021/04/06 03:38:58;;;;;;;13.10;5.53;;;2.70;99.90;;;;;;5093787;28;20403;-73
2021/04/06 03:41:26;;;;;;;6.43;4.30;;;2.70;99.90;;;;;;5093824;28;20458;-72
2021/04/06 03:43:52;;;;;;;6.30;3.80;;;2.70;99.90;;;;;;5094115;28;20399;-72
2021/04/06 03:46:25;;;;;;;8.97;4.53;;;2.60;99.90;;;;;;5093644;28;20417;-72
2021/04/06 03:48:51;;;;;;;7.63;5.67;;;2.50;99.90;;;;;;5093783;28;20810;-73
2021/04/06 03:51:29;;;;;;;9.87;6.23;;;2.40;99.90;;;;;;5093680;28;20876;-73
2021/04/06 03:53:56;;;;;;;11.77;6.90;;;2.20;99.90;;;;;;5094273;28;20408;-72
2021/04/06 03:56:32;;;;;;;12.37;7.97;;;2.10;99.90;;;;;;5094149;28;20390;-72
2021/04/06 03:59:09;;;;;;;13.97;9.23;;;2.20;99.90;;;;;;5093513;28;20405;-72
2021/04/06 04:01:34;;;;;;;13.60;8.77;;;2.40;99.90;;;;;;5093115;27;20466;-73
2021/04/06 04:04:00;;;;;;;14.67;9.47;;;2.50;99.90;;;;;;5092288;28;20421;-74
2021/04/06 04:06:27;;;;;;;16.67;9.30;;;2.70;99.90;;;;;;5093689;28;20190;-74
2021/04/06 04:08:54;;;;;;;19.10;10.20;;;2.80;99.90;;;;;;5093313;28;20165;-74
2021/04/06 04:11:21;;;;;;;21.40;11.20;;;2.90;99.90;;;;;;5093903;28;20993;-74
2021/04/06 04:13:46;;;;;;;17.60;10.40;;;3.00;99.90;;;;;;5094013;28;20437;-73
2021/04/06 04:16:12;;;;;;;21.47;12.17;;;2.80;99.90;;;;;;5093974;28;20887;-73
2021/04/06 04:18:38;;;;;;;21.07;11.40;;;2.60;99.90;;;;;;5096204;28;20184;-74
2021/04/06 04:21:04;;;;;;;19.67;13.00;;;2.50;99.90;;;;;;5096276;28;20435;-74
2021/04/06 04:23:31;;;;;;;20.03;13.00;;;2.50;99.90;;;;;;5097821;28;20172;-74
2021/04/06 04:25:56;;;;;;;15.77;10.80;;;2.60;99.90;;;;;;5097465;28;20809;-74
2021/04/06 04:28:22;;;;;;;17.57;10.63;;;2.60;99.90;;;;;;5097136;28;20448;-74
2021/04/06 04:30:50;;;;;;;18.47;10.10;;;2.50;99.90;;;;;;5096120;28;20201;-74
2021/04/06 04:33:16;;;;;;;17.40;10.33;;;2.50;99.90;;;;;;5097892;28;20425;-74
2021/04/06 04:35:42;;;;;;;19.27;10.37;;;2.40;99.90;;;;;;5097504;28;20947;-73
2021/04/06 04:38:09;;;;;;;18.13;9.97;;;2.40;99.90;;;;;;5095846;28;20205;-73
2021/04/06 04:40:38;;;;;;;14.53;9.20;;;2.30;99.90;;;;;;5097517;28;20840;-73
2021/04/06 04:43:03;;;;;;;18.60;10.67;;;2.40;99.90;;;;;;5095777;28;20493;-74
2021/04/06 04:45:29;;;;;;;17.60;10.07;;;2.50;99.90;;;;;;5096983;28;20930;-74
2021/04/06 04:47:54;;;;;;;21.20;9.70;;;2.40;99.90;;;;;;5096825;27;20209;-74
2021/04/06 04:50:21;;;;;;;17.37;10.07;;;2.30;99.90;;;;;;5095869;28;20184;-73
2021/04/06 04:52:48;;;;;;;19.63;8.53;;;2.30;99.90;;;;;;5097049;28;20314;-74
2021/04/06 04:55:15;;;;;;;22.17;9.80;;;2.40;99.90;;;;;;5097276;28;20407;-73
2021/04/06 04:57:41;;;;;;;17.30;10.03;;;2.40;99.90;;;;;;5097293;28;20173;-74
2021/04/06 05:00:08;;;;;;;19.40;11.23;;;2.30;99.90;;;;;;5096843;28;20426;-74
2021/04/06 05:02:34;;;;;;;16.90;9.73;;;2.20;99.90;;;;;;5097077;28;20450;-74
2021/04/06 05:04:59;;;;;;;22.47;12.00;;;2.00;99.90;;;;;;5097807;28;20399;-74
2021/04/06 05:07:25;;;;;;;15.60;8.53;;;1.80;99.90;;;;;;5097626;28;20255;-74
2021/04/06 05:09:51;;;;;;;12.73;6.77;;;1.70;99.90;;;;;;5097424;27;20180;-74
2021/04/06 05:12:17;;;;;;;12.80;6.50;;;1.60;99.90;;;;;;5097349;28;20431;-74
2021/04/06 05:14:44;;;;;;;16.20;7.60;;;1.50;99.90;;;;;;5097444;28;20169;-74
2021/04/06 05:17:10;;;;;;;11.03;6.40;;;1.60;99.90;;;;;;5097305;28;20494;-74
2021/04/06 05:19:36;;;;;;;6.40;4.40;;;1.70;99.90;;;;;;5095524;28;20473;-73
2021/04/06 05:22:01;;;;;;;5.10;3.07;;;1.70;99.90;;;;;;5097009;28;20200;-74
2021/04/06 05:24:27;;;;;;;4.93;2.90;;;1.60;99.90;;;;;;5095547;28;20705;-73
2021/04/06 05:26:52;;;;;;;7.40;3.70;;;1.50;99.90;;;;;;5095984;28;20173;-74
2021/04/06 05:29:18;;;;;;;11.70;4.33;;;1.50;99.90;;;;;;5096129;28;20176;-74
2021/04/06 05:31:43;;;;;;;5.30;4.30;;;1.70;99.90;;;;;;5096482;28;20602;-74
2021/04/06 05:34:09;;;;;;;9.33;5.40;;;1.60;99.90;;;;;;5096800;28;20176;-74
2021/04/06 05:36:34;;;;;;;14.83;6.90;;;1.70;99.90;;;;;;5096312;27;20193;-74
2021/04/06 05:39:00;;;;;;;14.73;6.97;;;1.80;99.90;;;;;;5096566;28;20626;-74
2021/04/06 05:41:26;;;;;;;9.00;6.90;;;1.80;99.90;;;;;;5094622;28;20616;-74
2021/04/06 05:44:04;;;;;;;16.67;7.60;;;1.90;99.90;;;;;;5094927;28;20180;-74
2021/04/06 05:46:34;;;;;;;20.93;9.10;;;2.10;99.90;;;;;;5096171;27;20472;-76
2021/04/06 05:49:02;;;;;;;15.80;8.10;;;2.20;99.90;;;;;;5095977;28;20413;-74
2021/04/06 05:51:28;;;;;;;15.30;9.07;;;2.20;99.90;;;;;;5096112;28;20426;-74
2021/04/06 05:53:54;;;;;;;15.43;9.73;;;2.30;99.90;;;;;;5094489;28;20824;-74
2021/04/06 05:56:20;;;;;;;15.57;10.20;;;2.40;99.90;;;;;;5095734;28;20457;-73
2021/04/06 05:58:46;;;;;;;21.47;11.50;;;2.60;99.90;;;;;;5094313;28;20434;-73
2021/04/06 06:01:12;;;;;;;16.50;10.07;;;2.70;99.90;;;;;;5095847;28;20432;-74
2021/04/06 06:03:38;;;;;;;25.60;12.70;;;2.70;99.90;;;;;;5096247;28;20173;-73
2021/04/06 06:06:04;;;;;;;21.80;11.13;;;2.50;99.90;;;;;;5094820;28;20420;-73
2021/04/06 06:08:30;;;;;;;20.17;12.33;;;2.40;99.90;;;;;;5096741;28;20403;-73
2021/04/06 06:11:05;;;;;;;24.77;12.43;;;2.30;99.90;;;;;;5096308;27;20200;-73
2021/04/06 06:13:34;;;;;;;30.70;12.00;;;2.40;99.90;;;;;;5095999;28;20433;-72
2021/04/06 06:16:25;;;;;;;18.30;9.30;;;2.50;99.90;;;;;;5097849;28;20410;-72
2021/04/06 06:18:58;;;;;;;22.90;11.57;;;2.60;99.90;;;;;;5102303;28;20446;-72
2021/04/06 06:21:38;;;;;;;24.93;14.57;;;2.60;99.90;;;;;;5110084;28;21020;-72
2021/04/06 06:24:05;;;;;;;24.40;12.60;;;2.60;99.90;;;;;;5096018;28;20873;-72
2021/04/06 06:26:30;;;;;;;22.30;13.70;;;2.60;99.90;;;;;;5109688;27;20417;-72
2021/04/06 06:29:10;;;;;;;22.00;12.70;;;2.70;99.90;;;;;;5082961;28;20430;-72
2021/04/06 06:31:44;;;;;;;19.80;11.30;;;2.80;99.90;;;;;;5074991;28;20657;-72
2021/04/06 06:34:24;;;;;;;17.80;10.63;;;2.90;99.90;;;;;;5086732;28;20411;-73
2021/04/06 06:37:04;;;;;;;18.40;9.60;;;3.00;99.90;;;;;;5116966;28;20410;-73
2021/04/06 06:39:30;;;;;;;21.23;11.77;;;3.10;99.90;;;;;;5115855;28;20410;-73
2021/04/06 06:42:05;;;;;;;17.53;9.30;;;3.00;99.90;;;;;;5114097;27;20484;-73
2021/04/06 06:44:32;;;;;;;17.57;9.63;;;3.10;99.90;;;;;;5094948;28;20418;-73
2021/04/06 06:47:07;;;;;;;14.87;9.40;;;3.10;99.90;;;;;;5098483;28;20743;-73
2021/04/06 06:49:39;;;;;;;17.13;9.00;;;3.20;99.90;;;;;;5108394;28;20500;-74
2021/04/06 06:52:26;;;;;;;14.60;8.83;;;3.20;99.90;;;;;;5101126;28;20796;-73
2021/04/06 06:54:58;;;;;;;12.17;9.60;;;3.30;99.90;;;;;;5087690;28;20406;-73
2021/04/06 06:57:31;;;;;;;14.63;9.83;;;3.30;99.90;;;;;;5102385;28;20757;-73
2021/04/06 07:00:11;;;;;;;13.07;9.53;;;3.10;99.90;;;;;;5108728;28;20475;-72
2021/04/06 07:02:37;;;;;;;13.80;9.70;;;2.90;99.90;;;;;;5081699;28;20473;-73
2021/04/06 07:05:15;;;;;;;16.80;10.40;;;2.70;99.90;;;;;;5106370;28;20417;-73
2021/04/06 07:07:59;;;;;;;13.37;9.87;;;2.60;99.90;;;;;;5105068;27;20409;-73
2021/04/06 07:10:35;;;;;;;14.50;9.60;;;2.70;99.90;;;;;;5097031;28;20510;-72
2021/04/06 07:13:03;;;;;;;16.03;11.17;;;2.60;99.90;;;;;;5106539;28;20468;-72
2021/04/06 07:15:29;;;;;;;15.70;10.60;;;2.70;99.90;;;;;;5104833;28;20939;-72
2021/04/06 07:18:00;;;;;;;13.43;10.40;;;2.80;99.90;;;;;;5096652;28;20463;-72
2021/04/06 07:20:27;;;;;;;14.70;9.30;;;2.90;99.90;;;;;;5110116;28;20848;-72
2021/04/06 07:22:58;;;;;;;17.90;9.40;;;3.10;99.90;;;;;;5099637;28;20441;-72
2021/04/06 07:25:23;;;;;;;12.43;9.53;;;3.20;99.90;;;;;;5108421;27;20433;-72
2021/04/06 07:27:49;;;;;;;13.93;9.30;;;3.30;99.90;;;;;;5099405;28;20410;-72
2021/04/06 07:30:15;;;;;;;17.63;8.83;;;3.40;99.90;;;;;;5108593;28;20194;-73
2021/04/06 07:32:42;;;;;;;12.10;8.03;;;3.40;99.90;;;;;;5097997;28;20416;-72
2021/04/06 07:35:11;;;;;;;10.90;8.23;;;3.50;99.90;;;;;;5104627;28;20964;-73
2021/04/06 07:37:43;;;;;;;7.40;6.00;;;3.60;99.90;;;;;;5103971;27;20443;-72
2021/04/06 07:40:10;;;;;;;9.30;6.83;;;3.60;99.90;;;;;;5096233;28;20433;-72
2021/04/06 07:42:38;;;;;;;12.63;7.30;;;3.60;99.90;;;;;;5109010;28;20474;-72
2021/04/06 07:45:07;;;;;;;10.50;7.60;;;3.50;99.90;;;;;;5099679;28;20402;-72
2021/04/06 07:47:37;;;;;;;11.70;7.27;;;3.60;99.90;;;;;;5101087;28;20457;-73
2021/04/06 07:50:05;;;;;;;13.20;7.53;;;3.70;99.90;;;;;;5109007;28;20461;-74
2021/04/06 07:52:31;;;;;;;12.80;8.00;;;3.80;99.90;;;;;;5095051;28;20411;-73
2021/04/06 07:54:56;;;;;;;13.53;8.40;;;3.70;99.90;;;;;;5106036;28;20411;-74
2021/04/06 07:57:41;;;;;;;16.60;11.13;;;3.60;99.90;;;;;;5101916;28;20660;-72
2021/04/06 08:00:07;;;;;;;13.23;10.10;;;3.50;99.90;;;;;;5095452;28;20222;-72
2021/04/06 08:02:42;;;;;;;14.37;10.07;;;3.60;99.90;;;;;;5109109;28;20454;-74
2021/04/06 08:05:10;;;;;;;16.50;9.53;;;3.80;99.90;;;;;;5101248;27;20426;-74
2021/04/06 08:07:36;;;;;;;14.47;9.57;;;4.00;99.90;;;;;;5100308;28;20434;-74
2021/04/06 08:10:24;;;;;;;16.90;7.83;;;4.30;99.90;;;;;;5108604;28;20432;-74
2021/04/06 08:12:49;;;;;;;12.60;6.90;;;4.40;99.90;;;;;;5084699;28;20408;-73
2021/04/06 08:15:19;;;;;;;11.60;6.90;;;4.30;99.90;;;;;;5103541;28;20439;-74
2021/04/06 08:17:47;;;;;;;8.60;6.03;;;4.40;99.90;;;;;;5106211;28;20193;-74
2021/04/06 08:20:19;;;;;;;11.43;5.43;;;4.40;99.90;;;;;;5095658;28;21375;-74
2021/04/06 08:23:10;;;;;;;11.63;4.73;;;4.30;99.90;;;;;;5107438;28;20456;-73
2021/04/06 08:25:37;;;;;;;7.63;4.63;;;4.20;99.90;;;;;;5096592;28;20524;-74
2021/04/06 08:28:24;;;;;;;5.17;4.50;;;4.20;99.90;;;;;;5108985;28;20751;-73
2021/04/06 08:30:50;;;;;;;7.97;4.50;;;4.20;99.90;;;;;;5084499;28;20439;-73
2021/04/06 08:33:16;;;;;;;8.23;4.37;;;4.30;99.90;;;;;;5103175;28;20503;-74
2021/04/06 08:35:52;;;;;;;7.60;4.60;;;4.30;99.90;;;;;;5105935;28;20172;-73
2021/04/06 08:38:24;;;;;;;7.53;3.80;;;4.30;99.90;;;;;;5095465;27;20184;-73
2021/04/06 08:40:53;;;;;;;9.70;4.93;;;4.40;99.90;;;;;;5112773;28;20516;-73
2021/04/06 08:43:22;;;;;;;10.80;4.23;;;4.50;99.90;;;;;;5102384;28;20480;-73
2021/04/06 08:46:00;;;;;;;10.90;4.30;;;4.80;99.90;;;;;;5106865;28;20405;-73
2021/04/06 08:48:53;;;;;;;7.00;4.30;;;4.80;99.90;;;;;;5096078;28;20414;-71
2021/04/06 08:51:27;;;;;;;5.47;4.60;;;4.60;99.90;;;;;;5103157;28;21212;-74
2021/04/06 08:53:58;;;;;;;7.83;4.37;;;4.40;99.90;;;;;;5107885;27;20436;-73
2021/04/06 08:56:27;;;;;;;6.20;3.60;;;4.50;99.90;;;;;;5110795;28;20474;-73
2021/04/06 08:59:13;;;;;;;9.40;4.57;;;4.60;99.90;;;;;;5091401;28;20803;-73
2021/04/06 09:01:39;;;;;;;7.60;4.00;;;4.70;99.90;;;;;;5092709;28;20454;-73
2021/04/06 09:04:10;;;;;;;5.93;4.40;;;4.90;99.90;;;;;;5094610;28;20402;-73
2021/04/06 09:06:36;;;;;;;9.47;3.47;;;5.10;99.90;;;;;;5084466;28;20669;-73
2021/04/06 09:09:01;;;;;;;5.73;3.70;;;5.10;99.90;;;;;;5108385;28;20451;-73
2021/04/06 09:11:27;;;;;;;8.40;3.50;;;5.30;99.90;;;;;;5096591;28;20184;-73
2021/04/06 09:13:53;;;;;;;6.43;3.57;;;5.40;99.90;;;;;;5096544;28;20500;-73
2021/04/06 09:16:30;;;;;;;7.30;3.97;;;5.40;99.90;;;;;;5096203;28;20167;-73
2021/04/06 09:18:58;;;;;;;8.50;3.00;;;5.30;99.90;;;;;;5099912;28;20864;-72
2021/04/06 09:21:25;;;;;;;7.07;3.00;;;5.10;99.90;;;;;;5105434;28;20435;-72
2021/04/06 09:23:55;;;;;;;8.90;3.10;;;5.00;99.90;;;;;;5110749;28;20432;-72
2021/04/06 09:26:21;;;;;;;8.10;3.47;;;4.80;99.90;;;;;;5099404;28;20427;-72
2021/04/06 09:29:19;;;;;;;6.40;2.90;;;4.60;99.90;;;;;;5110694;27;20422;-72
2021/04/06 09:31:51;;;;;;;5.27;2.77;;;4.80;99.90;;;;;;5094278;28;20439;-73
2021/04/06 09:34:17;;;;;;;6.37;3.00;;;5.10;99.90;;;;;;5097261;28;20516;-73
2021/04/06 09:36:51;;;;;;;10.30;2.60;;;5.20;99.90;;;;;;5111673;28;20417;-73
2021/04/06 09:39:17;;;;;;;4.57;2.60;;;5.30;99.90;;;;;;5105005;28;20820;-73
2021/04/06 09:41:43;;;;;;;6.93;2.83;;;5.50;99.90;;;;;;5102578;27;20469;-73
2021/04/06 09:44:15;;;;;;;6.43;3.27;;;5.50;99.90;;;;;;5094623;28;20454;-73
2021/04/06 09:46:46;;;;;;;7.87;3.63;;;5.50;99.90;;;;;;5116088;28;20398;-73
2021/04/06 09:49:13;;;;;;;5.67;3.10;;;5.50;99.30;;;;;;5106376;27;20414;-73
2021/04/06 09:51:47;;;;;;;9.03;3.77;;;5.50;99.50;;;;;;5095111;28;20541;-73
2021/04/06 09:54:13;;;;;;;8.53;2.87;;;5.60;99.60;;;;;;5112024;28;20915;-73
2021/04/06 09:56:40;;;;;;;4.60;3.63;;;5.70;99.20;;;;;;5095606;28;20552;-73
2021/04/06 09:59:07;;;;;;;6.60;3.30;;;5.80;99.10;;;;;;5102295;28;20410;-73
2021/04/06 10:01:33;;;;;;;4.90;2.83;;;5.90;98.90;;;;;;5103861;28;20439;-72
2021/04/06 10:04:02;;;;;;;7.90;3.33;;;5.90;97.80;;;;;;5111334;28;20463;-73
2021/04/06 10:06:40;;;;;;;4.77;2.67;;;6.00;97.20;;;;;;5099060;27;20402;-73
2021/04/06 10:09:19;;;;;;;4.30;2.67;;;6.00;96.40;;;;;;5106454;28;20411;-74
2021/04/06 10:11:46;;;;;;;5.80;2.80;;;6.00;97.10;;;;;;5109128;28;20437;-72
2021/04/06 10:14:11;;;;;;;5.10;2.30;;;5.80;98.80;;;;;;5099030;28;20540;-72
2021/04/06 10:16:37;;;;;;;3.80;2.60;;;5.90;99.70;;;;;;5105909;28;20438;-73
2021/04/06 10:19:26;;;;;;;3.60;2.77;;;6.00;99.80;;;;;;5102663;28;20195;-74
2021/04/06 10:22:12;;;;;;;4.73;2.10;;;6.10;99.80;;;;;;5103086;28;20208;-72
2021/04/06 10:24:41;;;;;;;7.67;2.13;;;6.00;99.20;;;;;;5084099;28;20402;-73
2021/04/06 10:27:18;;;;;;;6.30;2.43;;;6.10;99.80;;;;;;5092131;28;20761;-73
2021/04/06 10:29:50;;;;;;;6.87;4.00;;;6.30;99.20;;;;;;5115388;28;20393;-73
2021/04/06 10:32:40;;;;;;;3.33;2.20;;;6.30;98.80;;;;;;5098594;28;20434;-72
2021/04/06 10:35:22;;;;;;;6.60;2.27;;;5.90;99.90;;;;;;5105716;28;20438;-73
2021/04/06 10:37:57;;;;;;;4.97;2.63;;;5.10;99.90;;;;;;5109190;27;20464;-73
2021/04/06 10:40:37;;;;;;;3.70;2.60;;;4.90;99.90;;;;;;5098219;28;20832;-73
2021/04/06 10:43:13;;;;;;;4.93;2.47;;;5.00;99.90;;;;;;5107433;28;20476;-73
2021/04/06 10:45:42;;;;;;;2.97;2.50;;;5.10;99.90;;;;;;5107797;28;20406;-73
2021/04/06 10:48:22;;;;;;;5.30;2.70;;;5.40;99.90;;;;;;5097207;28;20427;-73
2021/04/06 10:50:56;;;;;;;2.67;2.10;;;5.60;99.90;;;;;;5109172;28;20422;-73
2021/04/06 10:53:31;;;;;;;2.97;2.03;;;5.70;99.90;;;;;;5094369;28;20918;-73
2021/04/06 10:56:13;;;;;;;3.37;2.37;;;5.70;99.90;;;;;;5087927;28;20438;-73
2021/04/06 10:58:45;;;;;;;3.20;1.83;;;5.90;99.90;;;;;;5099641;27;20778;-71
2021/04/06 11:01:14;;;;;;;1.80;1.60;;;5.90;99.90;;;;;;5099558;28;20430;-72
2021/04/06 11:03:44;;;;;;;4.10;1.60;;;6.00;99.90;;;;;;5091791;28;20505;-73
2021/04/06 11:06:14;;;;;;;4.40;1.80;;;6.20;99.90;;;;;;5107962;28;20840;-73
2021/04/06 11:08:43;;;;;;;2.20;1.70;;;6.20;99.90;;;;;;5094531;27;20544;-72
2021/04/06 11:11:27;;;;;;;3.90;2.30;;;6.40;99.90;;;;;;5100723;28;20433;-73
2021/04/06 11:14:08;;;;;;;3.40;1.90;;;6.60;99.90;;;;;;5094108;28;20428;-73
2021/04/06 11:16:35;;;;;;;2.73;2.40;;;6.70;99.90;;;;;;5077984;28;20454;-73
2021/04/06 11:19:14;;;;;;;3.93;2.23;;;6.70;98.70;;;;;;5103140;28;20461;-72
2021/04/06 11:21:52;;;;;;;3.33;3.00;;;6.80;98.80;;;;;;5103666;28;20519;-73
2021/04/06 11:24:20;;;;;;;3.63;2.30;;;7.00;98.40;;;;;;5082458;28;20436;-73
2021/04/06 11:26:47;;;;;;;4.57;2.20;;;7.10;98.70;;;;;;5098403;28;20760;-72
2021/04/06 11:29:15;;;;;;;2.30;2.10;;;7.30;98.70;;;;;;5090533;27;20971;-72
2021/04/06 11:31:44;;;;;;;3.10;2.33;;;7.10;96.20;;;;;;5102226;28;20448;-73
2021/04/06 11:34:10;;;;;;;4.57;2.00;;;6.90;96.90;;;;;;5091970;28;21078;-73
2021/04/06 11:36:36;;;;;;;5.90;2.20;;;6.80;96.80;;;;;;5105193;28;20428;-73
2021/04/06 11:39:06;;;;;;;4.27;2.77;;;6.70;97.40;;;;;;5099099;28;20418;-73
2021/04/06 11:41:32;;;;;;;3.97;2.70;;;6.60;97.80;;;;;;5099204;28;20201;-74
2021/04/06 11:43:57;;;;;;;4.93;2.77;;;6.50;98.60;;;;;;5105162;28;20715;-73
2021/04/06 11:46:23;;;;;;;5.17;2.97;;;6.50;98.70;;;;;;5102687;28;20258;-73
2021/04/06 11:48:49;;;;;;;3.13;2.50;;;6.40;98.70;;;;;;5105920;27;20189;-74
2021/04/06 11:51:15;;;;;;;5.40;2.80;;;6.20;99.10;;;;;;5101545;28;20398;-73
2021/04/06 11:53:41;;;;;;;4.00;2.40;;;6.00;99.80;;;;;;5098586;28;20203;-73
2021/04/06 11:56:07;;;;;;;4.73;2.60;;;5.90;99.60;;;;;;5087182;28;20431;-73
2021/04/06 11:58:33;;;;;;;5.87;2.43;;;5.70;98.20;;;;;;5105992;28;20856;-73
2021/04/06 12:00:59;;;;;;;4.07;3.10;;;5.40;99.40;;;;;;5077760;27;20217;-74
2021/04/06 12:03:25;;;;;;;6.30;2.43;;;5.50;99.90;;;;;;5094064;28;20583;-73
2021/04/06 12:05:50;;;;;;;2.60;1.90;;;5.60;99.90;;;;;;5082241;28;20181;-73
2021/04/06 12:08:16;;;;;;;4.37;2.10;;;5.70;99.20;;;;;;5089990;28;20784;-73
2021/04/06 12:10:44;;;;;;;4.20;2.10;;;5.80;99.30;;;;;;5092611;27;20232;-73
2021/04/06 12:13:09;;;;;;;6.27;2.30;;;5.80;99.00;;;;;;5093712;28;20188;-73
2021/04/06 12:15:35;;;;;;;4.70;2.23;;;5.70;98.90;;;;;;5088113;28;20801;-73
2021/04/06 12:18:00;;;;;;;2.30;1.67;;;5.50;99.40;;;;;;5083506;28;20200;-74
2021/04/06 12:20:26;;;;;;;3.20;1.90;;;5.40;99.40;;;;;;5096747;27;20266;-73
2021/04/06 12:22:52;;;;;;;1.53;1.43;;;5.50;99.80;;;;;;5096032;28;20204;-74
2021/04/06 12:25:17;;;;;;;2.63;1.30;;;5.40;98.90;;;;;;5100290;28;20250;-73
2021/04/06 12:27:45;;;;;;;1.90;1.30;;;5.40;98.30;;;;;;5090229;28;20221;-74
2021/04/06 12:30:11;;;;;;;3.07;1.30;;;5.10;98.00;;;;;;5092249;27;20452;-74
2021/04/06 12:32:36;;;;;;;1.47;1.17;;;4.80;98.60;;;;;;5103792;28;20857;-74
2021/04/06 12:35:02;;;;;;;2.20;1.13;;;4.70;99.60;;;;;;5103467;28;20420;-74
2021/04/06 12:37:30;;;;;;;2.20;1.30;;;4.80;99.40;;;;;;5102173;28;20229;-73
2021/04/06 12:39:56;;;;;;;1.53;1.43;;;4.80;99.30;;;;;;5093335;28;20202;-71
2021/04/06 12:42:21;;;;;;;2.53;1.97;;;4.90;99.10;;;;;;5099413;28;20452;-72
2021/04/06 12:44:47;;;;;;;4.43;1.90;;;5.00;99.60;;;;;;5102109;28;20826;-72
2021/04/06 12:47:13;;;;;;;1.90;1.50;;;5.00;99.90;;;;;;5104879;28;20168;-72
2021/04/06 12:49:38;;;;;;;2.20;2.03;;;4.80;99.90;;;;;;5093467;28;20213;-73
2021/04/06 12:52:05;;;;;;;2.10;1.43;;;4.60;99.90;;;;;;5093810;28;20249;-73
2021/04/06 12:54:30;;;;;;;3.57;1.97;;;4.20;99.90;;;;;;5108938;28;20257;-73
2021/04/06 12:56:56;;;;;;;2.57;1.97;;;4.00;99.90;;;;;;5099667;27;21340;-73
2021/04/06 12:59:22;;;;;;;3.60;2.60;;;3.70;99.90;;;;;;5094974;28;20639;-73
2021/04/06 13:01:48;;;;;;;4.77;2.70;;;3.60;99.90;;;;;;5098340;28;20325;-73
2021/04/06 13:04:13;;;;;;;2.60;2.37;;;3.90;99.90;;;;;;5099318;28;20993;-74
2021/04/06 13:06:39;;;;;;;3.77;2.60;;;4.00;99.90;;;;;;5102180;28;20166;-73